createdAt,value
2023-05-08T00:01:04.700Z,19.57
2023-05-08T00:03:33.936Z,19.58
2023-05-08T00:06:07.100Z,19.63
2023-05-08T00:08:36.557Z,19.65
2023-05-08T00:11:07.268Z,19.60
2023-05-08T00:13:36.254Z,19.55
2023-05-08T00:16:09.685Z,19.50
2023-05-08T00:18:40.916Z,19.42
2023-05-08T00:21:10.137Z,19.37
2023-05-08T00:23:39.531Z,19.38
2023-05-08T00:26:09.135Z,19.35
2023-05-08T00:28:38.125Z,19.31
2023-05-08T00:31:07.372Z,19.27
2023-05-08T00:33:36.168Z,19.22
2023-05-08T00:36:06.511Z,19.20
2023-05-08T00:38:37.037Z,19.23
2023-05-08T00:41:06.124Z,19.22
2023-05-08T00:43:36.141Z,19.24
2023-05-08T00:46:05.869Z,19.17
2023-05-08T00:48:36.917Z,19.08
2023-05-08T00:51:08.949Z,19.02
2023-05-08T00:53:41.555Z,19.00
2023-05-08T00:56:16.112Z,18.98
2023-05-08T00:58:46.323Z,18.96
2023-05-08T01:01:17.802Z,18.89
2023-05-08T01:03:47.978Z,18.91
2023-05-08T01:06:19.349Z,18.95
2023-05-08T01:08:48.799Z,18.93
2023-05-08T01:11:48.364Z,18.84
2023-05-08T01:14:27.163Z,18.63
2023-05-08T01:17:16.554Z,18.51
2023-05-08T01:19:51.320Z,18.35
2023-05-08T01:22:38.771Z,18.31
2023-05-08T01:25:26.647Z,18.23
2023-05-08T01:28:31.307Z,18.19
2023-05-08T01:31:27.281Z,18.23
2023-05-08T01:34:04.160Z,18.20
2023-05-08T01:36:49.065Z,18.17
2023-05-08T01:39:22.309Z,18.04
2023-05-08T01:42:23.817Z,18.04
2023-05-08T01:45:01.773Z,18.05
2023-05-08T01:47:33.702Z,18.04
2023-05-08T01:50:15.350Z,17.99
2023-05-08T01:52:51.204Z,17.80
2023-05-08T01:55:31.580Z,17.60
2023-05-08T01:58:05.168Z,17.55
2023-05-08T02:00:34.382Z,17.55
2023-05-08T02:03:08.738Z,17.48
2023-05-08T02:05:39.636Z,17.43
2023-05-08T02:08:14.466Z,17.34
2023-05-08T02:10:45.926Z,17.23
2023-05-08T02:13:20.688Z,17.16
2023-05-08T02:15:51.839Z,17.11
2023-05-08T02:18:26.912Z,17.10
2023-05-08T02:20:57.903Z,17.09
2023-05-08T02:23:28.439Z,17.11
2023-05-08T02:25:59.279Z,17.11
2023-05-08T02:28:31.659Z,17.10
2023-05-08T02:31:02.412Z,17.08
2023-05-08T02:33:32.388Z,17.08
2023-05-08T02:36:03.115Z,17.07
2023-05-08T02:38:32.520Z,17.06
2023-05-08T02:41:05.945Z,17.05
2023-05-08T02:43:36.968Z,16.99
2023-05-08T02:46:19.910Z,16.92
2023-05-08T02:48:59.468Z,16.83
2023-05-08T02:52:02.909Z,16.74
2023-05-08T02:55:07.073Z,16.63
2023-05-08T02:57:54.346Z,16.58
2023-05-08T03:00:34.009Z,16.55
2023-05-08T03:03:14.205Z,16.54
2023-05-08T03:05:50.626Z,16.54
2023-05-08T03:08:26.608Z,16.57
2023-05-08T03:11:03.115Z,16.56
2023-05-08T03:13:36.684Z,16.50
2023-05-08T03:16:10.118Z,16.37
2023-05-08T03:19:01.895Z,16.33
2023-05-08T03:21:32.780Z,16.30
2023-05-08T03:24:04.574Z,16.23
2023-05-08T03:26:35.034Z,16.20
2023-05-08T03:29:06.803Z,16.16
2023-05-08T03:31:37.252Z,16.16
2023-05-08T03:34:09.504Z,16.21
2023-05-08T03:36:39.056Z,16.22
2023-05-08T03:39:08.449Z,16.16
2023-05-08T03:41:37.725Z,16.15
2023-05-08T03:44:08.460Z,16.23
2023-05-08T03:46:39.700Z,16.21
2023-05-08T03:49:11.460Z,16.13
2023-05-08T03:51:42.231Z,16.03
2023-05-08T03:54:12.050Z,16.01
2023-05-08T03:56:41.818Z,16.01
2023-05-08T03:59:18.276Z,15.95
2023-05-08T04:01:59.671Z,15.86
2023-05-08T04:04:42.865Z,15.76
2023-05-08T04:07:37.011Z,15.70
2023-05-08T04:10:10.029Z,15.70
2023-05-08T04:13:05.332Z,15.79
2023-05-08T04:15:39.993Z,15.86
2023-05-08T04:18:11.876Z,15.95
2023-05-08T04:20:43.634Z,16.03
2023-05-08T04:23:17.915Z,16.03
2023-05-08T04:25:49.340Z,16.08
2023-05-08T04:28:20.440Z,16.15
2023-05-08T04:30:50.430Z,16.23
2023-05-08T04:33:20.572Z,16.19
2023-05-08T04:35:50.843Z,16.15
2023-05-08T04:38:19.858Z,16.07
2023-05-08T04:40:49.432Z,15.98
2023-05-08T04:43:18.367Z,16.02
2023-05-08T04:45:47.815Z,16.12
2023-05-08T04:48:17.553Z,16.15
2023-05-08T04:50:46.925Z,16.17
2023-05-08T04:53:16.255Z,16.21
2023-05-08T04:55:45.248Z,16.34
2023-05-08T04:58:15.395Z,16.31
2023-05-08T05:00:44.187Z,16.31
2023-05-08T05:03:13.864Z,16.38
2023-05-08T05:05:42.973Z,16.49
2023-05-08T05:08:11.894Z,16.60
2023-05-08T05:10:41.207Z,16.71
2023-05-08T05:13:10.618Z,16.87
2023-05-08T05:15:44.242Z,16.98
2023-05-08T05:18:13.422Z,16.94
2023-05-08T05:20:42.645Z,16.89
2023-05-08T05:23:12.304Z,16.88
2023-05-08T05:25:42.595Z,16.87
2023-05-08T05:28:12.055Z,16.83
2023-05-08T05:30:42.108Z,16.84
2023-05-08T05:33:11.068Z,16.90
2023-05-08T05:35:42.022Z,17.00
2023-05-08T05:38:11.478Z,17.09
2023-05-08T05:40:40.403Z,17.22
2023-05-08T05:43:09.805Z,17.30
2023-05-08T05:45:40.648Z,17.33
2023-05-08T05:48:11.542Z,17.46
2023-05-08T05:50:40.775Z,17.62
2023-05-08T05:53:10.561Z,17.73
2023-05-08T05:55:40.000Z,17.78
2023-05-08T05:58:09.350Z,17.85
2023-05-08T06:00:39.183Z,17.94
2023-05-08T06:03:08.368Z,18.05
2023-05-08T06:05:37.968Z,18.21
2023-05-08T06:08:08.921Z,18.40
2023-05-08T06:10:38.100Z,18.54
2023-05-08T06:13:07.071Z,18.73
2023-05-08T06:15:36.278Z,18.77
2023-05-08T06:18:05.347Z,18.82
2023-05-08T06:20:34.686Z,18.88
2023-05-08T06:23:05.066Z,19.00
2023-05-08T06:25:35.492Z,19.13
2023-05-08T06:28:06.857Z,19.25
2023-05-08T06:30:35.806Z,19.36
2023-05-08T06:33:04.987Z,19.48
2023-05-08T06:35:34.488Z,19.57
2023-05-08T06:38:03.467Z,19.68
2023-05-08T06:40:32.987Z,19.78
2023-05-08T06:43:02.839Z,19.91
2023-05-08T06:45:35.563Z,20.03
2023-05-08T06:48:05.861Z,20.16
2023-05-08T06:50:35.728Z,20.29
2023-05-08T06:53:05.974Z,20.50
2023-05-08T06:55:35.668Z,20.71
2023-05-08T06:58:05.900Z,20.91
2023-05-08T07:00:35.922Z,21.07
2023-05-08T07:03:06.375Z,21.32
2023-05-08T07:05:36.966Z,21.59
2023-05-08T07:08:06.111Z,21.89
2023-05-08T07:10:35.380Z,22.22
2023-05-08T07:13:04.446Z,22.51
2023-05-08T07:15:33.309Z,22.76
2023-05-08T07:18:03.818Z,23.03
2023-05-08T07:20:33.342Z,23.24
2023-05-08T07:23:03.278Z,23.42
2023-05-08T07:25:32.682Z,23.62
2023-05-08T07:28:02.217Z,23.75
2023-05-08T07:30:32.215Z,23.80
2023-05-08T07:33:01.298Z,23.89
2023-05-08T07:35:30.557Z,24.05
2023-05-08T07:37:59.361Z,24.08
2023-05-08T07:40:28.191Z,24.20
2023-05-08T07:42:58.229Z,24.43
2023-05-08T07:45:27.327Z,24.56
2023-05-08T07:47:59.020Z,24.57
2023-05-08T07:50:29.280Z,24.57
2023-05-08T07:52:58.801Z,24.52
2023-05-08T07:55:28.047Z,24.55
2023-05-08T07:57:57.617Z,24.66
2023-05-08T08:00:30.186Z,24.74
2023-05-08T08:03:01.270Z,24.83
2023-05-08T08:05:30.653Z,24.89
2023-05-08T08:07:59.644Z,24.93
2023-05-08T08:10:28.555Z,24.96
2023-05-08T08:12:57.630Z,24.97
2023-05-08T08:15:27.107Z,24.99
2023-05-08T08:17:56.744Z,25.04
2023-05-08T08:20:26.131Z,25.12
2023-05-08T08:22:56.461Z,25.19
2023-05-08T08:25:25.358Z,25.22
2023-05-08T08:27:54.905Z,25.23
2023-05-08T08:30:25.650Z,25.31
2023-05-08T08:32:54.846Z,25.42
2023-05-08T08:35:30.270Z,25.49
2023-05-08T08:38:01.358Z,25.55
2023-05-08T08:40:33.464Z,25.60
2023-05-08T08:43:03.487Z,25.61
2023-05-08T08:45:34.616Z,25.68
2023-05-08T08:48:05.911Z,25.78
2023-05-08T08:50:38.225Z,25.87
2023-05-08T08:53:28.243Z,25.98
2023-05-08T08:56:01.869Z,26.00
2023-05-08T08:58:40.107Z,26.26
2023-05-08T09:01:19.665Z,26.38
2023-05-08T09:03:50.602Z,26.38
2023-05-08T09:06:20.529Z,26.43
2023-05-08T09:08:51.533Z,26.54
2023-05-08T09:11:21.886Z,26.64
2023-05-08T09:13:52.538Z,26.62
2023-05-08T09:16:22.619Z,26.72
2023-05-08T09:18:51.985Z,26.83
2023-05-08T09:21:23.385Z,26.76
2023-05-08T09:23:59.275Z,26.77
2023-05-08T09:26:40.316Z,26.76
2023-05-08T09:29:10.435Z,26.81
2023-05-08T09:31:46.311Z,26.92
2023-05-08T09:34:27.412Z,26.90
2023-05-08T09:37:11.477Z,26.96
2023-05-08T09:39:43.554Z,27.07
2023-05-08T09:42:12.504Z,27.09
2023-05-08T09:44:50.169Z,27.18
2023-05-08T09:47:24.482Z,27.25
2023-05-08T09:50:00.439Z,27.45
2023-05-08T09:52:32.148Z,27.63
2023-05-08T09:55:09.630Z,27.79
2023-05-08T09:58:00.100Z,27.95
2023-05-08T10:00:30.598Z,28.15
2023-05-08T10:03:04.723Z,28.32
2023-05-08T10:05:39.533Z,28.37
2023-05-08T10:08:26.241Z,28.39
2023-05-08T10:11:04.100Z,28.25
2023-05-08T10:13:33.268Z,28.35
2023-05-08T10:16:03.130Z,28.58
2023-05-08T10:18:36.734Z,28.85
2023-05-08T10:21:08.934Z,29.08
2023-05-08T10:23:41.116Z,29.19
2023-05-08T10:26:16.134Z,29.34
2023-05-08T10:28:51.801Z,29.57
2023-05-08T10:31:25.987Z,29.68
2023-05-08T10:34:02.419Z,29.66
2023-05-08T10:36:33.025Z,29.66
2023-05-08T10:39:02.807Z,29.54
2023-05-08T10:41:32.753Z,29.54
2023-05-08T10:44:04.441Z,29.59
2023-05-08T10:47:10.914Z,29.40
2023-05-08T10:49:52.910Z,28.94
2023-05-08T10:52:55.038Z,28.62
2023-05-08T10:55:37.811Z,28.22
2023-05-08T10:58:15.722Z,27.95
2023-05-08T11:01:00.362Z,27.58
2023-05-08T11:03:33.057Z,27.29
2023-05-08T11:06:02.784Z,27.29
2023-05-08T11:08:33.053Z,27.43
2023-05-08T11:11:17.103Z,27.52
2023-05-08T11:13:51.319Z,27.45
2023-05-08T11:17:14.329Z,27.58
2023-05-08T11:20:00.157Z,27.70
2023-05-08T11:22:35.863Z,27.91
2023-05-08T11:25:07.880Z,28.11
2023-05-08T11:27:49.614Z,28.20
2023-05-08T11:30:42.108Z,28.40
2023-05-08T11:33:11.967Z,28.56
2023-05-08T11:36:15.152Z,28.77
2023-05-08T11:39:05.822Z,28.85
2023-05-08T11:41:35.223Z,28.92
2023-05-08T11:44:15.839Z,28.99
2023-05-08T11:46:55.906Z,29.01
2023-05-08T11:49:29.572Z,28.98
2023-05-08T11:52:00.326Z,29.06
2023-05-08T11:54:32.503Z,29.15
2023-05-08T11:57:02.418Z,29.24
2023-05-08T11:59:38.138Z,29.22
2023-05-08T12:02:09.711Z,29.11
2023-05-08T12:04:49.103Z,28.84
2023-05-08T12:07:19.754Z,28.73
2023-05-08T12:09:50.431Z,28.39
2023-05-08T12:12:20.542Z,28.18
2023-05-08T12:14:52.973Z,28.16
2023-05-08T12:17:23.211Z,28.13
2023-05-08T12:19:55.891Z,28.14
2023-05-08T12:22:26.206Z,28.01
2023-05-08T12:24:55.223Z,27.85
2023-05-08T12:27:25.868Z,27.77
2023-05-08T12:29:55.662Z,27.77
2023-05-08T12:32:28.873Z,27.78
2023-05-08T12:34:59.754Z,27.66
2023-05-08T12:37:29.375Z,27.55
2023-05-08T12:39:58.749Z,27.56
2023-05-08T12:42:44.718Z,27.62
2023-05-08T12:45:29.143Z,27.63
2023-05-08T12:48:10.271Z,27.63
2023-05-08T12:50:47.140Z,27.68
2023-05-08T12:53:18.319Z,27.67
2023-05-08T12:55:59.493Z,27.64
2023-05-08T12:58:31.337Z,27.58
2023-05-08T13:01:10.567Z,27.58
2023-05-08T13:03:41.617Z,27.65
2023-05-08T13:06:22.339Z,27.73
2023-05-08T13:08:55.734Z,27.80
2023-05-08T13:11:35.167Z,27.85
2023-05-08T13:14:05.042Z,27.96
2023-05-08T13:16:45.353Z,27.98
2023-05-08T13:19:17.430Z,28.00
2023-05-08T13:21:48.964Z,28.13
2023-05-08T13:24:18.904Z,28.29
2023-05-08T13:26:48.058Z,28.50
2023-05-08T13:29:17.753Z,28.68
2023-05-08T13:31:47.792Z,28.72
2023-05-08T13:34:18.307Z,28.73
2023-05-08T13:36:47.305Z,28.71
2023-05-08T13:39:16.814Z,28.68
2023-05-08T13:41:46.755Z,28.68
2023-05-08T13:44:17.661Z,28.54
2023-05-08T13:46:47.987Z,28.27
2023-05-08T13:49:20.909Z,28.05
2023-05-08T13:51:56.470Z,27.82
2023-05-08T13:54:26.707Z,27.44
2023-05-08T13:56:56.350Z,27.20
2023-05-08T13:59:26.504Z,26.96
2023-05-08T14:01:56.282Z,26.68
2023-05-08T14:04:25.988Z,26.45
2023-05-08T14:06:55.739Z,26.31
2023-05-08T14:09:27.419Z,26.19
2023-05-08T14:11:57.296Z,26.07
2023-05-08T14:14:27.780Z,25.89
2023-05-08T14:16:57.430Z,25.76
2023-05-08T14:19:27.857Z,25.62
2023-05-08T14:21:59.917Z,25.51
2023-05-08T14:24:33.077Z,25.44
2023-05-08T14:27:06.680Z,25.39
2023-05-08T14:29:37.479Z,25.21
2023-05-08T14:32:09.891Z,25.08
2023-05-08T14:34:39.892Z,25.03
2023-05-08T14:37:09.844Z,24.97
2023-05-08T14:39:41.091Z,24.95
2023-05-08T14:44:44.367Z,24.88
2023-05-08T14:47:14.285Z,24.87
2023-05-08T14:49:44.536Z,24.85
2023-05-08T14:52:14.690Z,24.89
2023-05-08T14:54:44.127Z,24.87
2023-05-08T14:57:14.492Z,24.83
2023-05-08T15:02:33.705Z,24.64
2023-05-08T15:05:08.134Z,24.56
2023-05-08T15:07:42.157Z,24.51
2023-05-08T15:10:11.770Z,24.50
2023-05-08T15:12:41.253Z,24.45
2023-05-08T15:15:12.446Z,24.45
2023-05-08T15:17:42.694Z,24.35
2023-05-08T15:20:14.357Z,24.30
2023-05-08T15:22:46.015Z,24.29
2023-05-08T15:25:17.612Z,24.20
2023-05-08T15:27:53.649Z,24.15
2023-05-08T15:30:25.378Z,24.09
2023-05-08T15:32:59.309Z,24.06
2023-05-08T15:35:31.246Z,24.02
2023-05-08T15:38:06.247Z,24.04
2023-05-08T15:40:38.339Z,24.03
2023-05-08T15:43:10.004Z,24.04
2023-05-08T15:45:40.950Z,24.07
2023-05-08T15:48:12.358Z,24.08
2023-05-08T15:50:42.439Z,24.07
2023-05-08T15:53:13.388Z,24.13
2023-05-08T15:55:43.488Z,24.20
2023-05-08T15:58:13.715Z,24.23
2023-05-08T16:00:45.454Z,24.25
2023-05-08T16:03:15.384Z,24.29
2023-05-08T16:05:46.252Z,24.32
2023-05-08T16:08:17.084Z,24.30
2023-05-08T16:10:47.848Z,24.29
2023-05-08T16:13:19.863Z,24.29
2023-05-08T16:15:49.565Z,24.28
2023-05-08T16:18:18.836Z,24.14
2023-05-08T16:20:47.758Z,23.98
2023-05-08T16:23:17.248Z,23.83
2023-05-08T16:25:47.966Z,23.63
2023-05-08T16:28:18.572Z,23.46
2023-05-08T16:30:48.792Z,23.26
2023-05-08T16:33:18.084Z,23.08
2023-05-08T16:35:47.686Z,22.96
2023-05-08T16:38:18.756Z,22.82
2023-05-08T16:40:49.244Z,22.72
2023-05-08T16:43:19.121Z,22.66
2023-05-08T16:45:53.394Z,22.61
2023-05-08T16:48:24.075Z,22.57
2023-05-08T16:50:53.965Z,22.51
2023-05-08T16:53:24.578Z,22.44
2023-05-08T16:55:56.672Z,22.38
2023-05-08T16:58:28.284Z,22.32
2023-05-08T17:00:58.159Z,22.28
2023-05-08T17:03:27.844Z,22.24
2023-05-08T17:05:57.506Z,22.16
2023-05-08T17:08:27.929Z,22.12
2023-05-08T17:10:58.274Z,22.09
2023-05-08T17:13:28.805Z,22.04
2023-05-08T17:15:59.182Z,21.98
2023-05-08T17:18:28.936Z,21.93
2023-05-08T17:20:58.878Z,21.92
2023-05-08T17:23:29.007Z,21.89
2023-05-08T17:25:59.866Z,21.85
2023-05-08T17:28:29.196Z,21.80
2023-05-08T17:31:00.216Z,21.77
2023-05-08T17:33:30.954Z,21.71
2023-05-08T17:36:02.714Z,21.67
2023-05-08T17:38:33.071Z,21.59
2023-05-08T17:41:03.109Z,21.53
2023-05-08T17:43:35.827Z,21.51
2023-05-08T17:46:05.502Z,21.49
2023-05-08T17:48:35.596Z,21.43
2023-05-08T17:51:05.519Z,21.40
2023-05-08T17:53:35.198Z,21.37
2023-05-08T17:56:04.668Z,21.33
2023-05-08T17:58:34.863Z,21.28
2023-05-08T18:01:04.087Z,21.28
2023-05-08T18:03:33.726Z,21.26
2023-05-08T18:06:03.023Z,21.20
2023-05-08T18:08:34.324Z,21.18
2023-05-08T18:11:06.528Z,21.13
2023-05-08T18:13:35.893Z,21.05
2023-05-08T18:16:05.691Z,20.98
2023-05-08T18:18:36.828Z,20.88
2023-05-08T18:21:08.734Z,20.77
2023-05-08T18:23:38.640Z,20.72
2023-05-08T18:26:08.474Z,20.64
2023-05-08T18:28:40.471Z,20.54
2023-05-08T18:31:10.498Z,20.49
2023-05-08T18:33:41.888Z,20.50
2023-05-08T18:36:13.180Z,20.47
2023-05-08T18:38:44.497Z,20.45
2023-05-08T18:41:14.993Z,20.45
2023-05-08T18:43:45.666Z,20.45
2023-05-08T18:46:19.111Z,20.42
2023-05-08T18:48:49.519Z,20.35
2023-05-08T18:51:19.811Z,20.28
2023-05-08T18:53:49.490Z,20.23
2023-05-08T18:56:20.184Z,20.23
2023-05-08T18:58:50.182Z,20.25
2023-05-08T19:01:20.921Z,20.24
2023-05-08T19:03:51.307Z,20.25
2023-05-08T19:06:23.046Z,20.26
2023-05-08T19:08:52.806Z,20.30
2023-05-08T19:11:23.532Z,20.29
2023-05-08T19:13:53.027Z,20.28
2023-05-08T19:16:24.015Z,20.29
2023-05-08T19:18:53.752Z,20.30
2023-05-08T19:21:23.767Z,20.28
2023-05-08T19:23:54.527Z,20.25
2023-05-08T19:26:24.624Z,20.22
2023-05-08T19:28:54.621Z,20.17
2023-05-08T19:31:24.343Z,20.12
2023-05-08T19:33:54.408Z,20.13
2023-05-08T19:36:25.944Z,20.13
2023-05-08T19:38:55.885Z,20.10
2023-05-08T19:41:26.292Z,20.00
2023-05-08T19:43:56.404Z,19.93
2023-05-08T19:46:26.237Z,19.90
2023-05-08T19:48:57.235Z,19.88
2023-05-08T19:51:27.245Z,19.83
2023-05-08T19:53:58.343Z,19.78
2023-05-08T19:56:29.355Z,19.70
2023-05-08T19:58:59.750Z,19.66
2023-05-08T20:01:30.710Z,19.69
2023-05-08T20:04:02.822Z,19.68
2023-05-08T20:06:33.783Z,19.68
2023-05-08T20:09:03.820Z,19.70
2023-05-08T20:11:33.398Z,19.73
2023-05-08T20:14:03.256Z,19.80
2023-05-08T20:16:33.092Z,19.86
2023-05-08T20:19:02.664Z,19.87
2023-05-08T20:21:35.033Z,19.85
2023-05-08T20:24:05.772Z,19.80
2023-05-08T20:26:35.105Z,19.80
2023-05-08T20:29:04.877Z,19.80
2023-05-08T20:31:35.985Z,19.78
2023-05-08T20:34:05.163Z,19.73
2023-05-08T20:36:34.850Z,19.68
2023-05-08T20:39:07.683Z,19.63
2023-05-08T20:41:37.039Z,19.58
2023-05-08T20:44:07.127Z,19.47
2023-05-08T20:46:36.801Z,19.35
2023-05-08T20:49:06.509Z,19.28
2023-05-08T20:51:37.208Z,19.25
2023-05-08T20:54:08.522Z,19.20
2023-05-08T20:56:38.203Z,19.16
2023-05-08T20:59:08.903Z,19.11
2023-05-08T21:01:38.262Z,19.11
2023-05-08T21:04:08.842Z,19.12
2023-05-08T21:06:39.058Z,19.11
2023-05-08T21:09:08.453Z,19.05
2023-05-08T21:11:39.099Z,18.99
2023-05-08T21:14:08.781Z,18.98
2023-05-08T21:16:37.864Z,18.98
2023-05-08T21:19:07.594Z,18.92
2023-05-08T21:21:37.445Z,18.86
2023-05-08T21:24:07.381Z,18.80
2023-05-08T21:26:36.320Z,18.77
2023-05-08T21:29:05.909Z,18.77
2023-05-08T21:31:39.570Z,18.74
2023-05-08T21:34:14.787Z,18.69
2023-05-08T21:36:44.322Z,18.72
2023-05-08T21:39:13.595Z,18.75
2023-05-08T21:41:46.955Z,18.72
2023-05-08T21:44:16.408Z,18.67
2023-05-08T21:46:45.777Z,18.65
2023-05-08T21:49:15.358Z,18.63
2023-05-08T21:51:46.055Z,18.61
2023-05-08T21:54:15.343Z,18.57
2023-05-08T21:56:44.029Z,18.54
2023-05-08T21:59:12.719Z,18.58
2023-05-08T22:01:42.143Z,18.64
2023-05-08T22:04:12.002Z,18.66
2023-05-08T22:06:43.826Z,18.62
2023-05-08T22:09:12.680Z,18.66
2023-05-08T22:11:42.521Z,18.69
2023-05-08T22:14:12.369Z,18.67
2023-05-08T22:16:43.074Z,18.64
2023-05-08T22:19:12.311Z,18.59
2023-05-08T22:21:41.397Z,18.59
2023-05-08T22:24:10.205Z,18.61
2023-05-08T22:26:39.002Z,18.62
2023-05-08T22:29:07.951Z,18.61
2023-05-08T22:31:36.825Z,18.64
2023-05-08T22:34:06.363Z,18.68
2023-05-08T22:36:36.410Z,18.63
2023-05-08T22:39:12.705Z,18.58
2023-05-08T22:41:43.023Z,18.53
2023-05-08T22:44:13.055Z,18.55
2023-05-08T22:46:43.114Z,18.59
2023-05-08T22:49:12.354Z,18.59
2023-05-08T22:51:41.290Z,18.55
2023-05-08T22:54:11.107Z,18.55
2023-05-08T22:56:41.125Z,18.59
2023-05-08T22:59:10.243Z,18.61
2023-05-08T23:01:39.501Z,18.58
2023-05-08T23:04:09.490Z,18.54
2023-05-08T23:06:38.784Z,18.52
2023-05-08T23:09:07.633Z,18.52
2023-05-08T23:11:36.640Z,18.50
2023-05-08T23:14:06.241Z,18.46
2023-05-08T23:16:35.254Z,18.46
2023-05-08T23:19:05.802Z,18.50
2023-05-08T23:21:35.192Z,18.50
2023-05-08T23:24:05.447Z,18.50
2023-05-08T23:26:35.206Z,18.51
2023-05-08T23:29:04.161Z,18.53
2023-05-08T23:31:33.410Z,18.57
2023-05-08T23:34:02.119Z,18.58
2023-05-08T23:36:32.462Z,18.56
2023-05-08T23:39:01.177Z,18.58
2023-05-08T23:41:30.170Z,18.64
2023-05-08T23:43:59.281Z,18.60
2023-05-08T23:46:28.283Z,18.56
2023-05-08T23:48:59.148Z,18.51
2023-05-08T23:51:28.266Z,18.49
2023-05-08T23:53:57.525Z,18.52
2023-05-08T23:56:27.463Z,18.52
2023-05-08T23:58:56.418Z,18.47
